RJAI(METAR)
02/18 15:00
METAR RJAI 180600Z 14008KT 9999 FEW040 13/M04 Q1022 RMK 1CU040
A3019=
戻る
トップページへ戻る
IMOC Co,.Ltd.